Terminal Aerodrome Forecast
Issued by NWS

Home | Current Version | Previous Version | Graphics & Text | Print | Product List | Glossary On
Versions: 1 2 3 4 5 6 7 8 9 10 11 12 13 14 15 16 17 18 19 20 21 22
000
FTUS43 KGRB 231934 AAA
TAFMTW
TAF AMD
KMTW 231934Z 2320/2418 33005KT P6SM BKN006
     FM240200 32004KT 3SM BR OVC003
      TEMPO 2409/2413 3/4SM BR OVC002
     FM241400 32005KT 4SM BR BKN003
     FM241600 32005KT P6SM BKN006=

USA.gov is the U.S. government's official web portal to all federal, state and local government web resources and services.